createdAt,value
2019-02-12T13:18:02.197Z,26.97
2019-02-12T13:20:31.381Z,49.90
2019-02-12T13:23:09.209Z,42.67
2019-02-12T13:25:37.055Z,15.77
2019-02-12T13:28:04.683Z,11.97
2019-02-12T13:30:32.288Z,11.13
2019-02-12T13:33:02.047Z,11.50
2019-02-12T13:35:29.581Z,14.37
2019-02-12T13:37:57.286Z,10.50
2019-02-12T13:40:24.959Z,9.13
2019-02-12T13:43:00.281Z,7.83
2019-02-12T13:45:30.104Z,8.23
2019-02-12T13:47:58.181Z,15.53
2019-02-12T13:50:25.672Z,7.93
2019-02-12T13:53:03.277Z,7.13
2019-02-12T13:55:32.779Z,8.60
2019-02-12T13:58:00.291Z,13.87
2019-02-12T14:00:27.837Z,15.03
2019-02-12T14:02:55.443Z,23.33
2019-02-12T14:05:22.963Z,10.80
2019-02-12T14:07:50.515Z,7.03
2019-02-12T14:10:18.045Z,10.93
2019-02-12T14:12:45.575Z,6.53
2019-02-12T14:15:13.590Z,8.07
2019-02-12T14:17:43.475Z,7.33
2019-02-12T14:20:19.602Z,9.90
2019-02-12T14:22:47.689Z,14.33
2019-02-12T14:25:16.250Z,8.67
2019-02-12T14:27:44.457Z,4.93
2019-02-12T14:30:12.969Z,9.97
2019-02-12T14:32:40.838Z,7.83
2019-02-12T14:35:09.857Z,13.43
2019-02-12T14:37:39.669Z,10.63
2019-02-12T14:40:08.743Z,5.40
2019-02-12T14:42:45.720Z,8.77
2019-02-12T14:45:14.103Z,20.60
2019-02-12T14:47:41.705Z,31.73
2019-02-12T14:50:10.335Z,9.50
2019-02-12T14:52:38.497Z,22.60
2019-02-12T14:55:09.129Z,6.93
2019-02-12T14:57:36.663Z,8.60
2019-02-12T15:00:05.274Z,7.37
2019-02-12T15:02:32.884Z,8.87
2019-02-12T15:05:00.823Z,3.87
2019-02-12T15:07:28.665Z,6.63
2019-02-12T15:09:56.574Z,3.47
2019-02-12T15:12:25.560Z,4.43
2019-02-12T15:14:53.294Z,5.07
2019-02-12T15:17:20.862Z,5.23
2019-02-12T15:19:48.483Z,5.33
2019-02-12T15:22:16.041Z,9.67
2019-02-12T15:24:43.648Z,9.20
2019-02-12T15:27:11.299Z,8.63
2019-02-12T15:29:39.173Z,16.37
2019-02-12T15:32:06.809Z,9.10
2019-02-12T15:34:34.367Z,15.07
2019-02-12T15:37:01.877Z,8.30
2019-02-12T15:39:29.401Z,14.57
2019-02-12T15:41:56.967Z,15.73
2019-02-12T15:44:24.487Z,7.27
2019-02-12T15:46:52.073Z,14.90
2019-02-12T15:49:19.581Z,17.07
2019-02-12T15:51:47.109Z,28.87
2019-02-12T15:54:14.659Z,22.20
2019-02-12T15:56:42.213Z,12.67
2019-02-12T15:59:09.731Z,19.90
2019-02-12T16:01:37.297Z,18.97
2019-02-12T16:04:05.955Z,17.43
2019-02-12T16:06:33.507Z,17.73
2019-02-12T16:09:01.069Z,32.27
2019-02-12T16:11:28.583Z,11.93
2019-02-12T16:13:58.737Z,12.27
2019-02-12T16:16:27.979Z,13.60
2019-02-12T16:18:55.799Z,20.23
2019-02-12T16:21:23.336Z,30.43
2019-02-12T16:23:50.897Z,35.17
2019-02-12T16:26:18.457Z,22.37
2019-02-12T16:28:46.012Z,17.53
2019-02-12T16:31:13.532Z,28.10
2019-02-12T16:33:41.137Z,24.10
2019-02-12T16:36:08.631Z,23.07
2019-02-12T16:38:36.145Z,22.30
2019-02-12T16:41:03.693Z,13.30
2019-02-12T16:43:31.217Z,18.00
